Observations
| Time | Sensor | AQI | SAQ | Temp °C | Hum % | Pres Pa | CO μg/m³ | H₂S μg/m³ | NO μg/m³ | NO₂ μg/m³ | O₃ μg/m³ | SO₂ μg/m³ | CO₂e PPM | VOC PPM | PM1 μg/m³ | PM2.5 μg/m³ | PM4 μg/m³ | PM10 μg/m³ | TPS µm |
|---|---|---|---|---|---|---|---|---|---|---|---|---|---|---|---|---|---|---|---|
| Tuesday 11 August 2026 | |||||||||||||||||||
| 12:06 | Trim Patrick St | 1 | 33.6 | 25 | 69,426 | 0 | 0 | 0.58 | 11.88 | 92.9 | 17.69 | 2 | 7.98 | 8.78 | |||||
| 12:05 | Trim Patrick St | 1 | 33.7 | 26 | 69,426 | 0 | 0 | 0.5 | 7.01 | 91.48 | 19.24 | 2 | 8.73 | 9.6 | |||||
| 12:04 | Trim Patrick St | 1 | 33.8 | 27 | 69,426 | 0 | 0 | 0.47 | 10.32 | 95.75 | 17.37 | 2.86 | 8.69 | 9.56 | |||||
| 12:04 | Trim Market St | 2 | 40.1 | 18 | 67,061 | 0 | 0 | 0 | 15.37 | 101.56 | 3.86 | 0 | 3.81 | 4.19 | |||||
| 12:03 | Trim Patrick St | 1 | 34 | 27 | 69,426 | 0 | 0 | 0.44 | 8.36 | 94.76 | 18.78 | 2.86 | 8.68 | 9.55 | |||||
| 12:02 | Trim Patrick St | 1 | 34 | 27 | 69,454 | 0 | 0 | 0.42 | 6.81 | 91.55 | 18.51 | 2.86 | 8.66 | 9.53 | |||||
| 12:02 | Trim Market St | 2 | 40.4 | 18 | 67,080 | 0 | 0 | 0 | 14.58 | 105.2 | 4.45 | 0 | 3.82 | 4.2 | |||||
| 12:01 | Trim Patrick St | 1 | 34.1 | 27 | 69,458 | 0 | 0 | 0.42 | 7.85 | 85.09 | 16.91 | 2.86 | 8.69 | 9.56 | |||||
| 12:00 | Trim Patrick St | 1 | 34.2 | 27 | 69,462 | 0 | 0 | 0.41 | 4 | 80.2 | 19.04 | 2 | 7.85 | 8.64 | |||||
| 11:59 | Trim Patrick St | 1 | 34.2 | 25 | 69,465 | 0 | 0 | 0.46 | 12.67 | 123.97 | 18.15 | 2 | 8.79 | 9.67 | |||||
| 11:58 | Trim Patrick St | 1 | 34.2 | 25 | 69,469 | 0 | 0 | 0.46 | 6.09 | 82.87 | 17.67 | 2 | 8 | 8.8 | |||||
| 11:58 | Trim Market St | 2 | 40.8 | 19 | 67,094 | 0 | 0 | 0 | 14.46 | 111.86 | 4.68 | 0 | 3.23 | 3.55 | |||||
| 11:57 | Trim Patrick St | 1 | 34.2 | 26 | 69,475 | 0 | 0 | 0.42 | 11.5 | 90.03 | 16.9 | 2 | 7.91 | 8.7 | |||||
| 11:57 | Trim Market St | 2 | 40.7 | 19 | 67,100 | 0 | 0 | 0 | 14.63 | 100.93 | 4.44 | 0 | 3.79 | 4.16 | |||||
| 11:56 | Trim Patrick St | 1 | 34.1 | 25 | 69,456 | 0 | 0 | 0.45 | 9.39 | 93.34 | 18.01 | 2 | 7.98 | 8.78 | |||||
| 11:56 | Trim Market St | 2 | 40.7 | 19 | 67,104 | 0 | 0 | 0 | 14.79 | 126.54 | 4.22 | 0 | 3.24 | 3.56 | |||||
| 11:55 | Trim Patrick St | 1 | 34.1 | 25 | 69,456 | 0 | 0 | 0.45 | 12.66 | 87.21 | 18.27 | 2 | 7.99 | 8.79 | |||||
| 11:54 | Trim Patrick St | 1 | 34.1 | 30 | 69,458 | 0 | 0 | 0.4 | 6.72 | 88.98 | 17.93 | 2.86 | 8.51 | 9.36 | |||||
| 11:53 | Trim Patrick St | 1 | 34 | 26 | 69,465 | 0 | 0 | 0.45 | 8.4 | 65.65 | 16.18 | 2 | 8.75 | 9.62 | |||||
| 11:53 | Trim Market St | 2 | 40.8 | 19 | 67,082 | 0 | 0 | 0 | 14.75 | 114.8 | 3.94 | 0.71 | 3.79 | 4.17 | |||||